• vieta
  • image
  • image
  • image
mod_vvisit_countermod_vvisit_countermod_vvisit_countermod_vvisit_countermod_vvisit_countermod_vvisit_countermod_vvisit_counter
mod_vvisit_counterŠiandien311
mod_vvisit_counterVakar924
mod_vvisit_counterŠią savaitę3278
mod_vvisit_counterPraėjusią savaitę4158
mod_vvisit_counterŠį mėnesį10004
mod_vvisit_counterPraėjusį mėnesį22275
mod_vvisit_counterViso1018236

Mes turime: 17 svečius online
Jūsų IP: 54.144.100.123
 , 
Šiandien: Lap 16, 2018
Oro uostas

AP V2 LT

 

Čia galite pamatyti trumpą filmuką apie įmonės Šiaulių oro uostas teikiamas paslaugas

Šiandien

Penktadienis, 16 Lapkritis 2018

Orų prognozė aviacijai

[source: ADDS]
METAR
EYSA 160750Z 15005KT 9999 OVC024 04/02 Q1042 R14L/09//95 WHT NOSIG =
TAF EYSA 160508Z 1606/1615 VRB05KT 7000 BKN015 TEMPO 1606/1609 SCT005
TAF
TAF EYSA 160508Z 1606/1615 VRB05KT 7000 BKN015 TEMPO 1606/1609 SCT005 =
SR / SS: 06:02 / 14:23 UTC (EYSA 2018-11-16)

Paieška

Lankytojai

Mes turime 17 svečius online

tic logo lt